createdAt,value
2022-08-09T00:01:10.482Z,3.60
2022-08-09T00:04:00.764Z,3.42
2022-08-09T00:06:39.205Z,3.47
2022-08-09T00:09:18.224Z,3.63
2022-08-09T00:12:02.693Z,3.55
2022-08-09T00:14:36.473Z,3.70
2022-08-09T00:18:10.901Z,3.95
2022-08-09T00:20:05.116Z,3.70
2022-08-09T00:22:36.947Z,3.30
2022-08-09T00:25:12.964Z,3.45
2022-08-09T00:27:45.066Z,3.65
2022-08-09T00:30:26.119Z,3.70
2022-08-09T00:33:01.708Z,3.80
2022-08-09T00:35:43.028Z,3.65
2022-08-09T00:38:16.368Z,3.50
2022-08-09T00:40:53.954Z,3.30
2022-08-09T00:44:10.786Z,3.60
2022-08-09T00:46:45.324Z,3.40
2022-08-09T00:49:15.075Z,3.50
2022-08-09T00:51:55.934Z,3.63
2022-08-09T00:54:31.502Z,3.53
2022-08-09T00:57:10.207Z,3.50
2022-08-09T00:59:52.291Z,3.97
2022-08-09T01:02:27.866Z,3.92
2022-08-09T01:05:14.302Z,4.03
2022-08-09T01:08:01.575Z,4.00
2022-08-09T01:10:41.794Z,3.78
2022-08-09T01:13:22.141Z,3.70
2022-08-09T01:15:57.367Z,3.78
2022-08-09T01:18:34.317Z,3.80
2022-08-09T01:21:24.849Z,3.90
2022-08-09T01:24:05.098Z,3.45
2022-08-09T01:27:00.635Z,3.83
2022-08-09T01:29:41.292Z,3.80
2022-08-09T01:32:37.595Z,4.13
2022-08-09T01:35:29.136Z,3.97
2022-08-09T01:38:14.932Z,3.70
2022-08-09T01:40:53.076Z,3.75
2022-08-09T01:43:51.028Z,3.97
2022-08-09T01:46:27.976Z,3.80
2022-08-09T01:49:10.689Z,3.90
2022-08-09T01:51:53.294Z,3.58
2022-08-09T01:54:32.612Z,3.58
2022-08-09T01:57:11.125Z,3.83
2022-08-09T01:59:53.665Z,3.75
2022-08-09T02:02:36.218Z,3.70
2022-08-09T02:05:15.807Z,4.15
2022-08-09T02:08:40.560Z,3.90
2022-08-09T02:10:50.915Z,3.78
2022-08-09T02:13:37.419Z,4.28
2022-08-09T02:16:16.684Z,4.05
2022-08-09T02:18:48.538Z,4.25
2022-08-09T02:21:24.566Z,3.67
2022-08-09T02:24:03.109Z,3.63
2022-08-09T02:26:39.404Z,4.88
2022-08-09T02:29:20.989Z,3.80
2022-08-09T02:32:01.404Z,4.30
2022-08-09T02:34:41.073Z,4.07
2022-08-09T02:37:24.294Z,4.13
2022-08-09T02:40:09.442Z,3.88
2022-08-09T02:42:46.457Z,4.00
2022-08-09T02:45:28.926Z,4.30
2022-08-09T02:48:06.534Z,3.70
2022-08-09T02:50:56.582Z,4.00
2022-08-09T02:53:31.765Z,3.80
2022-08-09T02:56:09.534Z,3.90
2022-08-09T02:58:44.815Z,3.90
2022-08-09T03:01:29.096Z,3.67
2022-08-09T03:04:18.564Z,3.97
2022-08-09T03:06:52.406Z,4.10
2022-08-09T03:09:25.684Z,4.10
2022-08-09T03:12:11.297Z,3.90
2022-08-09T03:14:47.097Z,4.25
2022-08-09T03:17:26.601Z,4.10
2022-08-09T03:20:11.611Z,4.20
2022-08-09T03:22:56.866Z,4.00
2022-08-09T03:25:59.051Z,3.97
2022-08-09T03:28:24.155Z,3.75
2022-08-09T03:30:58.348Z,4.30
2022-08-09T03:33:54.696Z,3.97
2022-08-09T03:36:28.195Z,3.97
2022-08-09T03:39:00.265Z,4.30
2022-08-09T03:41:45.844Z,4.32
2022-08-09T03:44:22.024Z,4.03
2022-08-09T03:47:00.398Z,4.18
2022-08-09T03:49:35.894Z,4.35
2022-08-09T03:52:12.117Z,4.15
2022-08-09T03:54:44.775Z,4.38
2022-08-09T03:57:20.908Z,4.35
2022-08-09T04:00:01.364Z,4.10
2022-08-09T04:02:35.951Z,4.28
2022-08-09T04:05:17.270Z,4.68
2022-08-09T04:08:02.326Z,4.05
2022-08-09T04:10:34.505Z,4.60
2022-08-09T04:13:11.270Z,4.32
2022-08-09T04:16:18.722Z,3.92
2022-08-09T04:18:37.535Z,3.80
2022-08-09T04:21:09.925Z,4.53
2022-08-09T04:23:57.725Z,4.22
2022-08-09T04:26:37.821Z,4.80
2022-08-09T04:29:14.826Z,4.47
2022-08-09T04:31:47.936Z,3.70
2022-08-09T04:34:30.428Z,4.32
2022-08-09T04:37:04.577Z,4.47
2022-08-09T04:39:40.631Z,4.93
2022-08-09T04:42:15.916Z,4.70
2022-08-09T04:44:50.955Z,4.43
2022-08-09T04:47:25.603Z,4.15
2022-08-09T04:50:05.848Z,4.75
2022-08-09T07:56:06.431Z,3.17
2022-08-09T07:58:39.412Z,3.20
2022-08-09T08:01:13.686Z,3.08
2022-08-09T08:03:46.213Z,2.90
2022-08-09T08:06:21.454Z,2.90
2022-08-09T08:09:07.669Z,2.78
2022-08-09T08:12:10.819Z,2.75
2022-08-09T08:14:45.913Z,2.90
2022-08-09T08:17:24.778Z,2.65
2022-08-09T08:20:12.859Z,2.67
2022-08-09T08:22:45.450Z,3.33
2022-08-09T08:25:20.951Z,3.05
2022-08-09T08:27:55.373Z,3.15
2022-08-09T08:30:30.292Z,3.13
2022-08-09T08:33:02.091Z,2.63
2022-08-09T08:35:58.617Z,3.03
2022-08-09T08:38:28.600Z,2.65
2022-08-09T08:41:01.938Z,2.90
2022-08-09T08:43:42.372Z,2.60
2022-08-09T08:46:33.006Z,2.70
2022-08-09T08:49:12.789Z,2.70
2022-08-09T08:52:00.517Z,2.50
2022-08-09T08:55:23.559Z,2.60
2022-08-09T08:57:58.573Z,2.95
2022-08-09T09:00:34.833Z,2.42
2022-08-09T09:03:33.270Z,2.88
2022-08-09T09:06:25.000Z,3.03
2022-08-09T09:09:20.975Z,3.00
2022-08-09T09:12:23.427Z,2.45
2022-08-09T09:15:28.201Z,2.50
2022-08-09T09:18:03.651Z,2.55
2022-08-09T09:20:50.662Z,2.72
2022-08-09T09:23:49.795Z,2.33
2022-08-09T09:26:45.958Z,2.20
2022-08-09T09:29:57.949Z,2.40
2022-08-09T09:32:42.069Z,2.28
2022-08-09T09:35:17.800Z,2.40
2022-08-09T09:37:50.230Z,2.20
2022-08-09T09:40:24.157Z,2.55
2022-08-09T09:43:13.507Z,2.50
2022-08-09T09:46:39.474Z,2.70
2022-08-09T09:48:59.703Z,2.20
2022-08-09T09:51:37.821Z,2.45
2022-08-09T09:54:20.338Z,2.42
2022-08-09T09:58:03.553Z,2.60
2022-08-09T09:59:52.285Z,2.55
2022-08-09T10:02:27.271Z,2.22
2022-08-09T10:05:11.184Z,2.70
2022-08-09T10:08:11.286Z,2.63
2022-08-09T10:10:41.181Z,2.20
2022-08-09T10:13:13.903Z,2.45
2022-08-09T10:16:54.841Z,3.03
2022-08-09T10:18:59.919Z,2.70
2022-08-09T10:21:33.061Z,2.90
2022-08-09T10:24:08.584Z,2.65
2022-08-09T10:26:49.782Z,2.67
2022-08-09T10:30:08.391Z,2.97
2022-08-09T10:32:48.393Z,2.33
2022-08-09T10:35:13.336Z,2.70
2022-08-09T10:37:48.241Z,2.75
2022-08-09T10:40:34.917Z,2.70
2022-08-09T10:43:10.684Z,2.55
2022-08-09T10:45:58.720Z,2.90
2022-08-09T10:48:40.883Z,2.50
2022-08-09T10:51:21.437Z,2.42
2022-08-09T10:54:06.503Z,2.63
2022-08-09T10:56:48.349Z,2.70
2022-08-09T10:59:55.247Z,3.10
2022-08-09T11:03:11.527Z,3.00
2022-08-09T11:05:35.019Z,2.58
2022-08-09T11:08:43.717Z,2.45
2022-08-09T11:11:20.881Z,2.58
2022-08-09T11:14:35.643Z,2.55
2022-08-09T11:18:02.844Z,2.40
2022-08-09T11:20:49.736Z,2.70
2022-08-09T11:23:23.795Z,3.10
2022-08-09T11:26:04.058Z,2.60
2022-08-09T11:28:56.153Z,3.13
2022-08-09T11:31:52.668Z,2.60
2022-08-09T11:34:44.421Z,2.90
2022-08-09T11:37:40.684Z,2.80
2022-08-09T11:40:17.750Z,3.10
2022-08-09T11:42:52.900Z,2.95
2022-08-09T11:45:42.572Z,2.33
2022-08-09T11:48:28.002Z,2.88
2022-08-09T11:51:38.011Z,2.60
2022-08-09T11:54:28.542Z,3.13
2022-08-09T11:57:47.757Z,2.88
2022-08-09T12:14:10.106Z,2.85
2022-08-09T12:17:28.316Z,2.75
2022-08-09T12:20:21.938Z,2.78
2022-08-09T12:22:57.889Z,2.50
2022-08-09T12:25:37.956Z,2.70
2022-08-09T12:29:12.229Z,2.55
2022-08-09T12:31:10.784Z,2.50
2022-08-09T12:33:58.865Z,2.72
2022-08-09T12:36:36.351Z,3.03
2022-08-09T12:39:18.046Z,3.00
2022-08-09T12:41:51.990Z,2.92
2022-08-09T12:44:24.814Z,3.25
2022-08-09T12:46:57.168Z,2.90
2022-08-09T12:49:29.490Z,3.00
2022-08-09T12:52:04.769Z,3.00
2022-08-09T12:56:10.787Z,2.72
2022-08-09T12:57:47.348Z,3.20
2022-08-09T13:00:25.062Z,2.67
2022-08-09T13:03:00.811Z,2.70
2022-08-09T13:06:12.992Z,2.63
2022-08-09T13:09:02.018Z,3.22
2022-08-09T13:11:42.277Z,2.80
2022-08-09T13:14:42.859Z,2.75
2022-08-09T13:17:43.662Z,2.60
2022-08-09T13:20:16.388Z,2.50
2022-08-09T13:23:05.881Z,2.60
2022-08-09T13:25:54.617Z,2.22
2022-08-09T13:28:34.705Z,2.40
2022-08-09T13:32:15.071Z,2.50
2022-08-09T13:34:03.529Z,2.30
2022-08-09T13:36:43.285Z,2.15
2022-08-09T13:41:18.789Z,2.25
2022-08-09T13:42:15.350Z,2.63
2022-08-09T13:44:50.570Z,2.47
2022-08-09T13:47:33.723Z,2.50
2022-08-09T13:50:30.047Z,2.60
2022-08-09T13:53:03.656Z,2.38
2022-08-09T13:55:36.850Z,2.30
2022-08-09T13:58:12.568Z,2.50
2022-08-09T14:00:48.341Z,2.60
2022-08-09T14:04:01.839Z,2.25
2022-08-09T14:06:26.616Z,2.53
2022-08-09T14:09:01.668Z,2.25
2022-08-09T14:11:47.160Z,2.50
2022-08-09T14:14:27.060Z,2.40
2022-08-09T14:17:01.928Z,2.13
2022-08-09T14:19:34.512Z,2.30
2022-08-09T14:22:06.708Z,2.13
2022-08-09T14:24:53.262Z,2.28
2022-08-09T14:27:26.753Z,2.30
2022-08-09T14:30:35.650Z,2.20
2022-08-09T14:32:53.488Z,2.38
2022-08-09T14:35:25.888Z,2.35
2022-08-09T14:38:17.889Z,2.55
2022-08-09T14:41:02.264Z,2.25
2022-08-09T14:43:53.311Z,2.30
2022-08-09T14:46:54.646Z,2.38
2022-08-09T14:49:23.601Z,2.08
2022-08-09T14:51:58.430Z,2.42
2022-08-09T14:54:31.331Z,2.10
2022-08-09T14:57:06.448Z,2.15
2022-08-09T14:59:38.611Z,2.08
2022-08-09T15:02:14.387Z,2.40
2022-08-09T15:04:49.947Z,2.38
2022-08-09T15:07:23.477Z,2.30
2022-08-09T15:10:04.861Z,2.22
2022-08-09T15:12:44.937Z,2.30
2022-08-09T15:15:17.448Z,2.17
2022-08-09T15:17:53.356Z,2.65
2022-08-09T15:21:57.533Z,2.50
2022-08-09T15:24:00.707Z,2.70
2022-08-09T15:26:19.196Z,2.35
2022-08-09T15:29:04.026Z,1.98
2022-08-09T15:31:41.026Z,2.22
2022-08-09T15:34:34.199Z,2.00
2022-08-09T15:37:37.360Z,2.50
2022-08-09T15:40:13.039Z,2.00
2022-08-09T15:42:47.610Z,2.03
2022-08-09T15:45:21.392Z,2.33
2022-08-09T15:48:05.542Z,2.47
2022-08-09T15:50:44.332Z,2.05
2022-08-09T15:53:32.691Z,2.40
2022-08-09T15:56:21.578Z,2.35
2022-08-09T15:59:01.170Z,2.45
2022-08-09T16:01:35.625Z,2.30
2022-08-09T16:04:12.006Z,2.03
2022-08-09T16:06:50.322Z,1.90
2022-08-09T16:09:51.127Z,1.90
2022-08-09T16:12:15.689Z,2.13
2022-08-09T16:14:47.828Z,2.00
2022-08-09T16:17:20.009Z,2.10
2022-08-09T16:20:03.793Z,1.90
2022-08-09T16:22:48.688Z,1.88
2022-08-09T16:25:33.481Z,2.22
2022-08-09T16:28:13.836Z,2.38
2022-08-09T16:30:58.936Z,2.08
2022-08-09T16:33:35.845Z,2.00
2022-08-09T16:36:15.960Z,1.63
2022-08-09T16:38:54.273Z,2.20
2022-08-09T16:42:02.266Z,2.00
2022-08-09T16:44:19.668Z,1.98
2022-08-09T16:46:55.346Z,1.80
2022-08-09T16:50:31.927Z,1.75
2022-08-09T16:52:27.953Z,2.30
2022-08-09T16:55:03.291Z,1.88
2022-08-09T16:58:08.203Z,2.05
2022-08-09T17:00:29.135Z,2.10
2022-08-09T17:03:03.149Z,1.90
2022-08-09T17:06:07.859Z,1.90
2022-08-09T17:08:46.595Z,2.28
2022-08-09T17:11:41.043Z,2.05
2022-08-09T17:14:15.879Z,1.80
2022-08-09T17:17:02.201Z,2.08
2022-08-09T17:19:47.312Z,1.90
2022-08-09T17:22:31.076Z,2.10
2022-08-09T17:25:04.919Z,2.10
2022-08-09T17:27:48.825Z,2.17
2022-08-09T17:30:22.468Z,2.50
2022-08-09T17:33:05.254Z,1.98
2022-08-09T17:35:51.489Z,2.47
2022-08-09T17:38:31.002Z,2.17
2022-08-09T17:41:05.769Z,2.15
2022-08-09T17:43:40.848Z,2.10
2022-08-09T17:46:14.431Z,2.42
2022-08-09T17:48:59.093Z,2.13
2022-08-09T17:51:31.153Z,2.10
2022-08-09T17:54:03.735Z,2.38
2022-08-09T17:56:37.448Z,8.68
2022-08-09T17:59:16.146Z,4.00
2022-08-09T18:02:08.080Z,2.70
2022-08-09T18:04:43.073Z,4.38
2022-08-09T18:07:23.356Z,3.85
2022-08-09T18:10:04.630Z,3.13
2022-08-09T18:12:40.583Z,2.88
2022-08-09T18:16:05.380Z,3.47
2022-08-09T18:18:25.805Z,2.95
2022-08-09T18:21:10.468Z,3.10
2022-08-09T18:24:11.629Z,2.60
2022-08-09T18:26:46.205Z,2.40
2022-08-09T18:30:35.613Z,2.38
2022-08-09T18:32:18.951Z,2.08
2022-08-09T18:34:51.191Z,2.40
2022-08-09T18:37:48.531Z,2.28
2022-08-09T18:40:27.030Z,2.33
2022-08-09T18:42:59.669Z,2.38
2022-08-09T18:46:49.928Z,2.10
2022-08-09T18:48:30.309Z,2.35
2022-08-09T18:51:04.934Z,2.10
2022-08-09T18:54:01.020Z,2.30
2022-08-09T18:56:31.189Z,2.47
2022-08-09T18:59:05.971Z,2.28
2022-08-09T19:01:46.042Z,2.55
2022-08-09T19:04:34.797Z,2.40
2022-08-09T19:07:08.368Z,2.20
2022-08-09T19:10:14.781Z,2.30
2022-08-09T19:12:38.195Z,2.35
2022-08-09T19:15:12.548Z,2.50
2022-08-09T19:17:55.043Z,2.47
2022-08-09T19:20:34.440Z,2.10
2022-08-09T19:23:16.552Z,2.55
2022-08-09T19:26:02.217Z,2.50
2022-08-09T19:28:38.097Z,2.22
2022-08-09T19:31:10.270Z,3.03
2022-08-09T19:33:43.193Z,3.10
2022-08-09T19:36:20.849Z,3.42
2022-08-09T19:38:55.308Z,3.80
2022-08-09T19:41:33.054Z,2.58
2022-08-09T19:44:08.192Z,3.08
2022-08-09T19:46:50.192Z,2.10
2022-08-09T19:50:10.140Z,2.40
2022-08-09T19:52:21.397Z,4.20
2022-08-09T19:55:06.156Z,3.75
2022-08-09T19:57:39.008Z,3.20
2022-08-09T20:00:16.349Z,2.45
2022-08-09T20:04:09.785Z,2.50
2022-08-09T20:05:46.401Z,2.63
2022-08-09T20:08:24.741Z,2.17
2022-08-09T20:11:05.709Z,2.30
2022-08-09T20:13:38.209Z,2.20
2022-08-09T20:16:36.247Z,2.70
2022-08-09T20:19:42.599Z,2.30
2022-08-09T20:21:57.476Z,2.38
2022-08-09T20:24:35.129Z,2.20
2022-08-09T20:27:09.000Z,2.17
2022-08-09T20:29:43.730Z,1.98
2022-08-09T20:32:29.274Z,2.60
2022-08-09T20:35:04.209Z,2.10
2022-08-09T20:38:20.334Z,2.30
2022-08-09T20:40:33.393Z,2.00
2022-08-09T20:43:24.305Z,2.38
2022-08-09T20:46:00.221Z,2.00
2022-08-09T20:48:49.933Z,2.22
2022-08-09T20:51:26.336Z,2.38
2022-08-09T20:53:58.390Z,2.10
2022-08-09T20:56:33.290Z,2.45
2022-08-09T20:59:05.399Z,2.33
2022-08-09T21:01:50.352Z,2.20
2022-08-09T21:05:52.591Z,2.53
2022-08-09T21:07:17.050Z,2.88
2022-08-09T21:09:56.597Z,2.55
2022-08-09T21:12:34.575Z,2.55
2022-08-09T21:15:12.368Z,2.50
2022-08-09T21:18:22.509Z,2.35
2022-08-09T21:20:39.140Z,2.40
2022-08-09T21:23:13.308Z,2.30
2022-08-09T21:25:59.662Z,2.47
2022-08-09T21:28:37.569Z,2.10
2022-08-09T21:31:16.240Z,2.15
2022-08-09T21:33:53.155Z,2.00
2022-08-09T21:36:31.027Z,2.55
2022-08-09T21:39:04.861Z,2.30
2022-08-09T21:42:06.100Z,2.10
2022-08-09T21:44:35.306Z,2.70
2022-08-09T21:47:17.650Z,2.42
2022-08-09T21:49:51.078Z,2.35
2022-08-09T21:52:24.469Z,2.75
2022-08-09T21:55:03.884Z,2.80
2022-08-09T21:57:59.966Z,2.35
2022-08-09T22:00:36.451Z,2.70
2022-08-09T22:03:19.355Z,2.33
2022-08-09T22:05:59.229Z,2.45
2022-08-09T22:08:31.690Z,2.35
2022-08-09T22:12:05.718Z,2.10
2022-08-09T22:13:57.711Z,2.00
2022-08-09T22:16:37.363Z,2.40
2022-08-09T22:19:58.035Z,2.30
2022-08-09T22:22:02.572Z,2.63
2022-08-09T22:24:34.949Z,2.40
2022-08-09T22:27:10.291Z,2.33
2022-08-09T22:29:50.086Z,2.45
2022-08-09T22:32:31.499Z,2.80
2022-08-09T22:35:06.874Z,2.55
2022-08-09T22:38:07.144Z,2.42
2022-08-09T22:40:40.411Z,2.78
2022-08-09T22:44:01.521Z,2.42
2022-08-09T22:48:10.614Z,2.63
2022-08-09T22:49:10.603Z,2.60
2022-08-09T22:51:49.892Z,2.55
2022-08-09T22:54:30.249Z,2.58
2022-08-09T22:57:02.500Z,2.38
2022-08-09T22:59:55.475Z,2.60
2022-08-09T23:02:27.576Z,2.50
2022-08-09T23:05:03.051Z,2.50
2022-08-09T23:08:22.665Z,2.58
2022-08-09T23:10:43.930Z,2.53
2022-08-09T23:13:16.371Z,2.40
2022-08-09T23:16:03.183Z,2.63
2022-08-09T23:18:36.273Z,2.47
2022-08-09T23:21:12.193Z,2.70
2022-08-09T23:24:05.393Z,2.50
2022-08-09T23:26:37.850Z,2.50
2022-08-09T23:29:14.220Z,3.00
2022-08-09T23:31:50.177Z,2.60
2022-08-09T23:34:24.888Z,3.03
2022-08-09T23:37:00.068Z,2.90
2022-08-09T23:39:32.535Z,3.22
2022-08-09T23:42:05.071Z,2.95
2022-08-09T23:44:37.790Z,2.97
2022-08-09T23:47:10.291Z,3.20
2022-08-09T23:49:42.590Z,3.15
2022-08-09T23:52:18.231Z,2.90
2022-08-09T23:54:55.809Z,2.97
2022-08-09T23:57:28.493Z,3.35
